AirNav   Everest Fuels
 
 391 users online  

4AK2 St John Homestead Airport
Wasilla, Alaska, USA

GOING TO WASILLA?


FAA INFORMATION EFFECTIVE 18 JUNE 2020

Location

FAA Identifier: 4AK2
Lat/Long: 61-33-28.7600N 149-25-26.6800W
61-33.479333N 149-25.444667W
61.5579889,-149.4240778
(estimated)
Elevation: 250 ft. / 76 m (estimated)
Variation: 23E (1965)
From city: 2 miles S of WASILLA, AK
Time zone: UTC -8 (UTC -9 during Standard Time)
Zip code: 99654

Airport Operations

Airport use: Private use. Permission required prior to landing
Activation date: 03/2001
Control tower: no
ARTCC: ANCHORAGE CENTER
FSS: KENAI FLIGHT SERVICE STATION [907-283-7211]
Attendance: UNATNDD
Segmented circle: no

Airport Communications

CTAF: 122.8
WX AWOS-3P at IYS (3 nm W): 135.25 (907-373-3801)
WX AWOS-3P at BCV (9 nm S): 135.55 (907-688-0826)
WX ASOS at PAQ (10 nm E): 134.75 (907-746-6675)
WX ASOS at FRN (19 nm S): 134.25

Nearby radio navigation aids

VOR radial/distance  VOR name  Freq  Var
BGQr074/15.5BIG LAKE VORTAC112.5019E
TEDr015/28.0ANCHORAGE VOR/DME113.1518E

 
NDB name  Hdg/Dist  Freq  Var  ID
CAMPBELL LAKE022/29.333816ECMQ -.-. -- --.-

Airport Services

Runway Information

Runway 4/22

Dimensions: 900 x 60 ft. / 274 x 18 m
Surface: turf
RY 04/22 SOFT.
RUNWAY 4  RUNWAY 22
Traffic pattern: leftleft
Obstructions: 50 ft. trees, 500 ft. from runwaynone

Airport Ownership and Management from official FAA records

Ownership: Privately-owned
Owner: RICHARD W. SMITH
BOX 874761
WASILLA, AK 99687
Phone 907-376-8012
Manager: RICHARD W. SMITH
BOX 874761
WASILLA, AK 99687
Phone 907-376-8012

Airport Operational Statistics

Aircraft based on the field: 3
Single engine airplanes: 3
    

Additional Remarks

FOR USE ONLY BY OWNERS. NO SVCS AVBL.

Instrument Procedures

There are no published instrument procedures at 4AK2.

Some nearby airports with instrument procedures:

PAWS - Wasilla Airport (3 nm W)
PAAQ - Warren "Bud" Woods Palmer Municipal Airport (10 nm E)
PAGQ - Big Lake Airport (11 nm W)
PAFR - Bryant Army Airfield Heliport (19 nm S)
PAUO - Willow Airport (21 nm NW)
 
Loc | Ops | Rwys | IFR | FBO | Links
Com | Nav | Svcs | Stats | Notes

Crowley
 
Area around 4AK2 (St John Homestead Airport)
 
Road maps at: MapQuest Bing Google
 
Aerial photo
No photo
 
Sectional chart

 
Airport distance calculator
Flying to St John Homestead Airport? Find the distance to fly.

From to 4AK2

Sunrise and sunset
Times for 11-Jul-2020
 Local
(UTC-8)
 Zulu
(UTC)
Morning civil twilight02:5110:51
Sunrise04:4112:41
Sunset23:2607:26
Evening civil twilight01:1609:16

Current date and time
Zulu (UTC)  11-Jul-2020 10:30:13
Local (UTC-8)  11-Jul-2020 02:30:13
 
METAR
PABV 
9nm S 
110956Z AUTO 25003KT 10SM FEW003 SCT046 OVC090 13/13 A2977 RMK AO2 RAB24E35 SLP086 P0000 T01330128
PAAQ 
10nm E 
110953Z AUTO 00000KT 10SM SCT055 BKN075 OVC090 13/12 A2975 RMK AO2 RAB13E47 SLP075 P0000 T01280122 TSNO $
PAFR 
19nm S 
110958Z AUTO 00000KT 10SM OVC028 14/12 A2974 RMK AO2 SLP076 T01390124 $
TAF
PAAQ 
10nm E 
110522Z 1106/1206 VRB03KT P6SM VCSH SCT050 BKN080 FM112200 14006KT P6SM -SHRA VCTS BKN060CB
NOTAMs
Click for the latest NOTAMs
NOTAMs are issued by the DoD/FAA and will open in a separate window not controlled by AirNav.

 

 
 

Would you like to see your business listed on this page?

 If your business provides an interesting product or service to pilots, flight crews, aircraft, or users of the St John Homestead Airport, you should consider listing it here.  To start the listing process, click on the button below
 
Add a business
 

Other Pages about St John Homestead Airport

Update a link
 
Copyright © AirNav, LLC. All rights reserved. Privacy Policy  Contact